sensor_id;sensor_type;location;lat;lon;timestamp;P1;durP1;ratioP1;P2;durP2;ratioP2
773;SDS011;370;48.810;9.150;2022-11-21T00:00:59;0.55;;;0.52;;
773;SDS011;370;48.810;9.150;2022-11-21T00:03:25;0.60;;;0.60;;
773;SDS011;370;48.810;9.150;2022-11-21T00:05:52;0.60;;;0.50;;
773;SDS011;370;48.810;9.150;2022-11-21T00:08:20;0.80;;;0.50;;
773;SDS011;370;48.810;9.150;2022-11-21T00:10:47;0.40;;;0.40;;
773;SDS011;370;48.810;9.150;2022-11-21T00:13:15;0.40;;;0.40;;
773;SDS011;370;48.810;9.150;2022-11-21T00:15:44;0.70;;;0.40;;
773;SDS011;370;48.810;9.150;2022-11-21T00:18:11;0.40;;;0.40;;
773;SDS011;370;48.810;9.150;2022-11-21T00:20:38;0.40;;;0.40;;
773;SDS011;370;48.810;9.150;2022-11-21T00:23:07;0.40;;;0.40;;
773;SDS011;370;48.810;9.150;2022-11-21T00:25:35;0.60;;;0.50;;
773;SDS011;370;48.810;9.150;2022-11-21T00:28:02;0.30;;;0.30;;
773;SDS011;370;48.810;9.150;2022-11-21T00:30:30;0.30;;;0.30;;
773;SDS011;370;48.810;9.150;2022-11-21T00:33:00;0.40;;;0.40;;
773;SDS011;370;48.810;9.150;2022-11-21T00:35:27;1.45;;;0.40;;
773;SDS011;370;48.810;9.150;2022-11-21T00:37:58;0.30;;;0.30;;
773;SDS011;370;48.810;9.150;2022-11-21T00:40:26;0.60;;;0.45;;
773;SDS011;370;48.810;9.150;2022-11-21T00:42:53;0.30;;;0.30;;
773;SDS011;370;48.810;9.150;2022-11-21T00:45:19;0.60;;;0.40;;
773;SDS011;370;48.810;9.150;2022-11-21T00:47:46;0.40;;;0.40;;
773;SDS011;370;48.810;9.150;2022-11-21T00:50:16;0.60;;;0.50;;
773;SDS011;370;48.810;9.150;2022-11-21T00:52:45;0.30;;;0.30;;
773;SDS011;370;48.810;9.150;2022-11-21T00:55:18;0.30;;;0.30;;
773;SDS011;370;48.810;9.150;2022-11-21T00:57:45;0.82;;;0.40;;
773;SDS011;370;48.810;9.150;2022-11-21T01:00:12;0.50;;;0.40;;
773;SDS011;370;48.810;9.150;2022-11-21T01:02:39;0.40;;;0.35;;
773;SDS011;370;48.810;9.150;2022-11-21T01:05:06;0.50;;;0.40;;
773;SDS011;370;48.810;9.150;2022-11-21T01:07:35;0.30;;;0.30;;
773;SDS011;370;48.810;9.150;2022-11-21T01:10:02;0.40;;;0.40;;
773;SDS011;370;48.810;9.150;2022-11-21T01:12:30;0.50;;;0.40;;
773;SDS011;370;48.810;9.150;2022-11-21T01:14:57;0.95;;;0.45;;
773;SDS011;370;48.810;9.150;2022-11-21T01:17:23;0.55;;;0.47;;
773;SDS011;370;48.810;9.150;2022-11-21T01:19:50;0.50;;;0.40;;
773;SDS011;370;48.810;9.150;2022-11-21T01:22:17;0.50;;;0.40;;
773;SDS011;370;48.810;9.150;2022-11-21T01:24:45;0.30;;;0.30;;
773;SDS011;370;48.810;9.150;2022-11-21T01:27:12;0.50;;;0.40;;
773;SDS011;370;48.810;9.150;2022-11-21T01:29:38;0.30;;;0.30;;
773;SDS011;370;48.810;9.150;2022-11-21T01:32:05;0.60;;;0.50;;
773;SDS011;370;48.810;9.150;2022-11-21T01:34:32;0.70;;;0.50;;
773;SDS011;370;48.810;9.150;2022-11-21T01:36:59;1.88;;;0.63;;
773;SDS011;370;48.810;9.150;2022-11-21T01:39:26;0.50;;;0.40;;
773;SDS011;370;48.810;9.150;2022-11-21T01:41:54;0.40;;;0.40;;
773;SDS011;370;48.810;9.150;2022-11-21T01:44:21;0.40;;;0.40;;
773;SDS011;370;48.810;9.150;2022-11-21T01:46:50;0.40;;;0.40;;
773;SDS011;370;48.810;9.150;2022-11-21T01:49:18;0.50;;;0.40;;
773;SDS011;370;48.810;9.150;2022-11-21T01:51:52;0.52;;;0.50;;
773;SDS011;370;48.810;9.150;2022-11-21T01:54:23;0.30;;;0.30;;
773;SDS011;370;48.810;9.150;2022-11-21T01:56:55;0.30;;;0.30;;
773;SDS011;370;48.810;9.150;2022-11-21T01:59:28;0.50;;;0.40;;
773;SDS011;370;48.810;9.150;2022-11-21T02:01:58;0.30;;;0.30;;
773;SDS011;370;48.810;9.150;2022-11-21T02:04:27;2.70;;;0.65;;
773;SDS011;370;48.810;9.150;2022-11-21T02:06:56;0.75;;;0.40;;
773;SDS011;370;48.810;9.150;2022-11-21T02:09:24;0.40;;;0.40;;
773;SDS011;370;48.810;9.150;2022-11-21T02:11:53;0.50;;;0.40;;
773;SDS011;370;48.810;9.150;2022-11-21T02:14:24;0.50;;;0.50;;
773;SDS011;370;48.810;9.150;2022-11-21T02:16:51;0.30;;;0.30;;
773;SDS011;370;48.810;9.150;2022-11-21T02:19:22;0.47;;;0.40;;
773;SDS011;370;48.810;9.150;2022-11-21T02:21:57;0.30;;;0.30;;
773;SDS011;370;48.810;9.150;2022-11-21T02:24:29;0.40;;;0.40;;
773;SDS011;370;48.810;9.150;2022-11-21T02:27:03;0.60;;;0.50;;
773;SDS011;370;48.810;9.150;2022-11-21T02:29:30;0.50;;;0.50;;
773;SDS011;370;48.810;9.150;2022-11-21T02:31:58;0.30;;;0.30;;
773;SDS011;370;48.810;9.150;2022-11-21T02:34:25;0.30;;;0.30;;
773;SDS011;370;48.810;9.150;2022-11-21T02:36:52;1.02;;;0.70;;
773;SDS011;370;48.810;9.150;2022-11-21T02:39:20;2.85;;;0.60;;
773;SDS011;370;48.810;9.150;2022-11-21T02:41:53;0.60;;;0.50;;
773;SDS011;370;48.810;9.150;2022-11-21T02:44:30;0.55;;;0.47;;
773;SDS011;370;48.810;9.150;2022-11-21T02:47:03;0.30;;;0.30;;
773;SDS011;370;48.810;9.150;2022-11-21T02:49:33;0.50;;;0.40;;
773;SDS011;370;48.810;9.150;2022-11-21T02:52:05;1.15;;;0.60;;
773;SDS011;370;48.810;9.150;2022-11-21T02:54:32;0.50;;;0.30;;
773;SDS011;370;48.810;9.150;2022-11-21T02:56:59;0.50;;;0.40;;
773;SDS011;370;48.810;9.150;2022-11-21T02:59:26;0.30;;;0.30;;
773;SDS011;370;48.810;9.150;2022-11-21T03:01:54;0.63;;;0.52;;
773;SDS011;370;48.810;9.150;2022-11-21T03:04:23;0.30;;;0.30;;
773;SDS011;370;48.810;9.150;2022-11-21T03:06:50;0.35;;;0.32;;
773;SDS011;370;48.810;9.150;2022-11-21T03:09:17;0.40;;;0.40;;
773;SDS011;370;48.810;9.150;2022-11-21T03:11:44;0.40;;;0.40;;
773;SDS011;370;48.810;9.150;2022-11-21T03:14:11;0.93;;;0.43;;
773;SDS011;370;48.810;9.150;2022-11-21T03:16:38;0.40;;;0.40;;
773;SDS011;370;48.810;9.150;2022-11-21T03:19:06;0.30;;;0.30;;
773;SDS011;370;48.810;9.150;2022-11-21T03:21:33;0.30;;;0.30;;
773;SDS011;370;48.810;9.150;2022-11-21T03:23:59;0.50;;;0.43;;
773;SDS011;370;48.810;9.150;2022-11-21T03:26:26;0.30;;;0.30;;
773;SDS011;370;48.810;9.150;2022-11-21T03:28:53;0.50;;;0.40;;
773;SDS011;370;48.810;9.150;2022-11-21T03:31:20;0.30;;;0.30;;
773;SDS011;370;48.810;9.150;2022-11-21T03:33:47;0.30;;;0.30;;
773;SDS011;370;48.810;9.150;2022-11-21T03:36:15;0.50;;;0.40;;
773;SDS011;370;48.810;9.150;2022-11-21T03:38:42;1.73;;;0.40;;
773;SDS011;370;48.810;9.150;2022-11-21T03:41:08;0.50;;;0.50;;
773;SDS011;370;48.810;9.150;2022-11-21T03:43:49;0.30;;;0.30;;
773;SDS011;370;48.810;9.150;2022-11-21T03:46:16;0.40;;;0.35;;
773;SDS011;370;48.810;9.150;2022-11-21T03:48:42;0.40;;;0.40;;
773;SDS011;370;48.810;9.150;2022-11-21T03:51:09;0.40;;;0.40;;
773;SDS011;370;48.810;9.150;2022-11-21T03:53:37;0.30;;;0.30;;
773;SDS011;370;48.810;9.150;2022-11-21T03:56:04;0.50;;;0.40;;
773;SDS011;370;48.810;9.150;2022-11-21T03:58:31;0.40;;;0.40;;
773;SDS011;370;48.810;9.150;2022-11-21T04:00:58;0.43;;;0.40;;
773;SDS011;370;48.810;9.150;2022-11-21T04:03:25;0.40;;;0.40;;
773;SDS011;370;48.810;9.150;2022-11-21T04:05:51;0.30;;;0.30;;
773;SDS011;370;48.810;9.150;2022-11-21T04:08:18;0.30;;;0.30;;
773;SDS011;370;48.810;9.150;2022-11-21T04:10:46;0.60;;;0.50;;
773;SDS011;370;48.810;9.150;2022-11-21T04:13:14;0.50;;;0.45;;
773;SDS011;370;48.810;9.150;2022-11-21T04:15:41;0.40;;;0.40;;
773;SDS011;370;48.810;9.150;2022-11-21T04:18:08;0.30;;;0.30;;
773;SDS011;370;48.810;9.150;2022-11-21T04:20:35;0.35;;;0.32;;
773;SDS011;370;48.810;9.150;2022-11-21T04:23:02;0.40;;;0.40;;
773;SDS011;370;48.810;9.150;2022-11-21T04:25:30;0.35;;;0.35;;
773;SDS011;370;48.810;9.150;2022-11-21T04:27:59;0.88;;;0.40;;
773;SDS011;370;48.810;9.150;2022-11-21T04:30:27;0.30;;;0.30;;
773;SDS011;370;48.810;9.150;2022-11-21T04:32:54;0.68;;;0.57;;
773;SDS011;370;48.810;9.150;2022-11-21T04:35:23;0.80;;;0.50;;
773;SDS011;370;48.810;9.150;2022-11-21T04:37:50;1.38;;;0.40;;
773;SDS011;370;48.810;9.150;2022-11-21T04:40:17;0.30;;;0.30;;
773;SDS011;370;48.810;9.150;2022-11-21T04:42:45;0.70;;;0.45;;
773;SDS011;370;48.810;9.150;2022-11-21T04:45:15;0.40;;;0.30;;
773;SDS011;370;48.810;9.150;2022-11-21T04:47:42;0.60;;;0.50;;
773;SDS011;370;48.810;9.150;2022-11-21T04:50:12;0.70;;;0.50;;
773;SDS011;370;48.810;9.150;2022-11-21T04:52:41;0.50;;;0.40;;
773;SDS011;370;48.810;9.150;2022-11-21T04:55:08;0.70;;;0.40;;
773;SDS011;370;48.810;9.150;2022-11-21T04:57:35;0.45;;;0.40;;
773;SDS011;370;48.810;9.150;2022-11-21T05:00:02;2.90;;;1.00;;
773;SDS011;370;48.810;9.150;2022-11-21T05:02:31;0.50;;;0.40;;
773;SDS011;370;48.810;9.150;2022-11-21T05:04:58;0.40;;;0.40;;
773;SDS011;370;48.810;9.150;2022-11-21T05:07:25;0.40;;;0.40;;
773;SDS011;370;48.810;9.150;2022-11-21T05:09:51;1.58;;;0.47;;
773;SDS011;370;48.810;9.150;2022-11-21T05:12:18;0.50;;;0.40;;
773;SDS011;370;48.810;9.150;2022-11-21T05:15:03;0.70;;;0.40;;
773;SDS011;370;48.810;9.150;2022-11-21T05:17:31;0.30;;;0.30;;
773;SDS011;370;48.810;9.150;2022-11-21T05:19:58;0.40;;;0.40;;
773;SDS011;370;48.810;9.150;2022-11-21T05:22:25;0.30;;;0.30;;
773;SDS011;370;48.810;9.150;2022-11-21T05:24:51;0.98;;;0.73;;
773;SDS011;370;48.810;9.150;2022-11-21T05:27:18;0.50;;;0.40;;
773;SDS011;370;48.810;9.150;2022-11-21T05:29:45;6.43;;;0.63;;
773;SDS011;370;48.810;9.150;2022-11-21T05:32:12;0.65;;;0.40;;
773;SDS011;370;48.810;9.150;2022-11-21T05:34:40;1.95;;;0.50;;
773;SDS011;370;48.810;9.150;2022-11-21T05:37:07;0.40;;;0.40;;
773;SDS011;370;48.810;9.150;2022-11-21T05:39:33;0.40;;;0.40;;
773;SDS011;370;48.810;9.150;2022-11-21T05:42:00;0.50;;;0.47;;
773;SDS011;370;48.810;9.150;2022-11-21T05:44:27;0.60;;;0.50;;
773;SDS011;370;48.810;9.150;2022-11-21T05:46:52;0.60;;;0.50;;
773;SDS011;370;48.810;9.150;2022-11-21T05:49:20;1.40;;;0.70;;
773;SDS011;370;48.810;9.150;2022-11-21T05:51:48;0.50;;;0.45;;
773;SDS011;370;48.810;9.150;2022-11-21T05:54:15;0.55;;;0.50;;
773;SDS011;370;48.810;9.150;2022-11-21T05:56:41;1.67;;;0.65;;
773;SDS011;370;48.810;9.150;2022-11-21T05:59:09;0.50;;;0.50;;
773;SDS011;370;48.810;9.150;2022-11-21T06:01:36;0.63;;;0.52;;
773;SDS011;370;48.810;9.150;2022-11-21T06:04:21;0.63;;;0.60;;
773;SDS011;370;48.810;9.150;2022-11-21T06:06:49;0.40;;;0.40;;
773;SDS011;370;48.810;9.150;2022-11-21T06:09:15;0.52;;;0.50;;
773;SDS011;370;48.810;9.150;2022-11-21T06:11:42;0.73;;;0.65;;
773;SDS011;370;48.810;9.150;2022-11-21T06:14:09;6.28;;;0.63;;
773;SDS011;370;48.810;9.150;2022-11-21T06:16:36;0.60;;;0.55;;
773;SDS011;370;48.810;9.150;2022-11-21T06:19:02;0.50;;;0.50;;
773;SDS011;370;48.810;9.150;2022-11-21T06:21:29;0.65;;;0.50;;
773;SDS011;370;48.810;9.150;2022-11-21T06:23:59;0.45;;;0.45;;
773;SDS011;370;48.810;9.150;2022-11-21T06:26:26;0.70;;;0.55;;
773;SDS011;370;48.810;9.150;2022-11-21T06:28:53;0.45;;;0.40;;
773;SDS011;370;48.810;9.150;2022-11-21T06:31:21;0.70;;;0.60;;
773;SDS011;370;48.810;9.150;2022-11-21T06:33:51;0.65;;;0.47;;
773;SDS011;370;48.810;9.150;2022-11-21T06:36:18;17.33;;;0.60;;
773;SDS011;370;48.810;9.150;2022-11-21T06:38:45;2.28;;;0.82;;
773;SDS011;370;48.810;9.150;2022-11-21T06:41:14;0.40;;;0.40;;
773;SDS011;370;48.810;9.150;2022-11-21T06:43:42;0.40;;;0.40;;
773;SDS011;370;48.810;9.150;2022-11-21T06:46:09;0.65;;;0.50;;
773;SDS011;370;48.810;9.150;2022-11-21T06:48:36;1.27;;;0.50;;
773;SDS011;370;48.810;9.150;2022-11-21T06:51:03;0.50;;;0.40;;
773;SDS011;370;48.810;9.150;2022-11-21T06:53:31;0.40;;;0.40;;
773;SDS011;370;48.810;9.150;2022-11-21T06:55:58;1.50;;;0.85;;
773;SDS011;370;48.810;9.150;2022-11-21T06:58:26;0.75;;;0.60;;
773;SDS011;370;48.810;9.150;2022-11-21T07:00:53;0.60;;;0.50;;
773;SDS011;370;48.810;9.150;2022-11-21T07:03:20;1.95;;;0.60;;
773;SDS011;370;48.810;9.150;2022-11-21T07:05:47;0.80;;;0.65;;
773;SDS011;370;48.810;9.150;2022-11-21T07:08:14;0.93;;;0.60;;
773;SDS011;370;48.810;9.150;2022-11-21T07:10:41;0.45;;;0.45;;
773;SDS011;370;48.810;9.150;2022-11-21T07:13:09;1.05;;;0.93;;
773;SDS011;370;48.810;9.150;2022-11-21T07:15:50;0.50;;;0.50;;
773;SDS011;370;48.810;9.150;2022-11-21T07:18:18;3.30;;;0.70;;
773;SDS011;370;48.810;9.150;2022-11-21T07:20:46;1.75;;;0.68;;
773;SDS011;370;48.810;9.150;2022-11-21T07:23:14;1.83;;;1.30;;
773;SDS011;370;48.810;9.150;2022-11-21T07:25:41;0.98;;;0.88;;
773;SDS011;370;48.810;9.150;2022-11-21T07:28:08;2.70;;;1.13;;
773;SDS011;370;48.810;9.150;2022-11-21T07:30:35;1.45;;;0.80;;
773;SDS011;370;48.810;9.150;2022-11-21T07:33:04;1.80;;;1.70;;
773;SDS011;370;48.810;9.150;2022-11-21T07:35:33;0.60;;;0.50;;
773;SDS011;370;48.810;9.150;2022-11-21T07:38:00;0.50;;;0.50;;
773;SDS011;370;48.810;9.150;2022-11-21T07:40:28;0.70;;;0.70;;
773;SDS011;370;48.810;9.150;2022-11-21T07:42:59;0.60;;;0.50;;
773;SDS011;370;48.810;9.150;2022-11-21T07:45:27;1.15;;;0.60;;
773;SDS011;370;48.810;9.150;2022-11-21T07:47:57;0.77;;;0.73;;
773;SDS011;370;48.810;9.150;2022-11-21T07:50:25;0.40;;;0.40;;
773;SDS011;370;48.810;9.150;2022-11-21T07:52:55;0.90;;;0.57;;
773;SDS011;370;48.810;9.150;2022-11-21T07:55:23;1.40;;;0.95;;
773;SDS011;370;48.810;9.150;2022-11-21T07:57:56;0.57;;;0.55;;
773;SDS011;370;48.810;9.150;2022-11-21T08:00:24;2.45;;;0.57;;
773;SDS011;370;48.810;9.150;2022-11-21T08:02:50;0.85;;;0.75;;
773;SDS011;370;48.810;9.150;2022-11-21T08:05:17;0.50;;;0.45;;
773;SDS011;370;48.810;9.150;2022-11-21T08:07:45;4.53;;;1.35;;
773;SDS011;370;48.810;9.150;2022-11-21T08:10:12;0.82;;;0.73;;
773;SDS011;370;48.810;9.150;2022-11-21T08:12:40;0.70;;;0.68;;
773;SDS011;370;48.810;9.150;2022-11-21T08:15:07;0.75;;;0.70;;
773;SDS011;370;48.810;9.150;2022-11-21T08:17:34;1.73;;;0.60;;
773;SDS011;370;48.810;9.150;2022-11-21T08:20:01;1.77;;;0.80;;
773;SDS011;370;48.810;9.150;2022-11-21T08:22:28;2.15;;;0.70;;
773;SDS011;370;48.810;9.150;2022-11-21T08:24:56;1.23;;;0.80;;
773;SDS011;370;48.810;9.150;2022-11-21T08:27:23;3.17;;;0.80;;
773;SDS011;370;48.810;9.150;2022-11-21T08:29:50;7.50;;;0.70;;
773;SDS011;370;48.810;9.150;2022-11-21T08:32:16;3.10;;;1.20;;
773;SDS011;370;48.810;9.150;2022-11-21T08:34:43;2.40;;;0.52;;
773;SDS011;370;48.810;9.150;2022-11-21T08:37:10;2.45;;;0.50;;
773;SDS011;370;48.810;9.150;2022-11-21T08:39:37;1.63;;;0.73;;
773;SDS011;370;48.810;9.150;2022-11-21T08:42:05;0.40;;;0.40;;
773;SDS011;370;48.810;9.150;2022-11-21T08:44:32;4.47;;;0.85;;
773;SDS011;370;48.810;9.150;2022-11-21T08:46:59;1.33;;;0.85;;
773;SDS011;370;48.810;9.150;2022-11-21T08:49:27;2.67;;;1.20;;
773;SDS011;370;48.810;9.150;2022-11-21T08:51:53;2.28;;;0.70;;
773;SDS011;370;48.810;9.150;2022-11-21T08:54:21;1.05;;;0.80;;
773;SDS011;370;48.810;9.150;2022-11-21T08:56:49;3.03;;;0.90;;
773;SDS011;370;48.810;9.150;2022-11-21T08:59:17;1.33;;;1.20;;
773;SDS011;370;48.810;9.150;2022-11-21T09:01:44;4.77;;;1.13;;
773;SDS011;370;48.810;9.150;2022-11-21T09:04:11;3.90;;;1.10;;
773;SDS011;370;48.810;9.150;2022-11-21T09:06:38;2.53;;;1.00;;
773;SDS011;370;48.810;9.150;2022-11-21T09:09:05;2.70;;;1.33;;
773;SDS011;370;48.810;9.150;2022-11-21T09:11:33;2.93;;;1.10;;
773;SDS011;370;48.810;9.150;2022-11-21T09:14:00;3.57;;;1.00;;
773;SDS011;370;48.810;9.150;2022-11-21T09:16:46;2.20;;;0.90;;
773;SDS011;370;48.810;9.150;2022-11-21T09:19:30;1.03;;;0.97;;
773;SDS011;370;48.810;9.150;2022-11-21T09:21:57;4.90;;;1.30;;
773;SDS011;370;48.810;9.150;2022-11-21T09:24:24;7.03;;;1.10;;
773;SDS011;370;48.810;9.150;2022-11-21T09:26:51;2.30;;;0.80;;
773;SDS011;370;48.810;9.150;2022-11-21T09:29:21;2.40;;;1.07;;
773;SDS011;370;48.810;9.150;2022-11-21T09:31:49;0.90;;;0.80;;
773;SDS011;370;48.810;9.150;2022-11-21T09:34:15;1.97;;;1.07;;
773;SDS011;370;48.810;9.150;2022-11-21T09:36:42;1.20;;;1.10;;
773;SDS011;370;48.810;9.150;2022-11-21T09:39:09;1.90;;;1.17;;
773;SDS011;370;48.810;9.150;2022-11-21T09:41:37;1.70;;;0.80;;
773;SDS011;370;48.810;9.150;2022-11-21T09:44:32;0.97;;;0.90;;
773;SDS011;370;48.810;9.150;2022-11-21T09:47:18;2.23;;;1.17;;
773;SDS011;370;48.810;9.150;2022-11-21T09:49:50;4.73;;;1.20;;
773;SDS011;370;48.810;9.150;2022-11-21T09:52:21;1.27;;;0.80;;
773;SDS011;370;48.810;9.150;2022-11-21T09:54:55;2.70;;;1.30;;
773;SDS011;370;48.810;9.150;2022-11-21T09:57:26;4.40;;;1.00;;
773;SDS011;370;48.810;9.150;2022-11-21T09:59:52;5.30;;;1.17;;
773;SDS011;370;48.810;9.150;2022-11-21T10:02:22;2.00;;;1.40;;
773;SDS011;370;48.810;9.150;2022-11-21T10:04:49;3.70;;;1.43;;
773;SDS011;370;48.810;9.150;2022-11-21T10:07:19;4.87;;;1.00;;
773;SDS011;370;48.810;9.150;2022-11-21T10:10:00;6.20;;;1.37;;
773;SDS011;370;48.810;9.150;2022-11-21T10:12:36;2.73;;;0.83;;
773;SDS011;370;48.810;9.150;2022-11-21T10:18:02;1.77;;;1.00;;
773;SDS011;370;48.810;9.150;2022-11-21T10:20:48;2.13;;;0.77;;
773;SDS011;370;48.810;9.150;2022-11-21T10:23:29;0.93;;;0.67;;
773;SDS011;370;48.810;9.150;2022-11-21T10:26:08;2.67;;;1.33;;
773;SDS011;370;48.810;9.150;2022-11-21T10:28:42;3.47;;;0.80;;
773;SDS011;370;48.810;9.150;2022-11-21T10:31:15;1.90;;;0.90;;
773;SDS011;370;48.810;9.150;2022-11-21T10:33:44;0.87;;;0.77;;
773;SDS011;370;48.810;9.150;2022-11-21T10:36:22;1.70;;;0.80;;
773;SDS011;370;48.810;9.150;2022-11-21T10:38:53;0.80;;;0.70;;
773;SDS011;370;48.810;9.150;2022-11-21T10:41:24;0.67;;;0.60;;
773;SDS011;370;48.810;9.150;2022-11-21T10:44:03;0.80;;;0.73;;
773;SDS011;370;48.810;9.150;2022-11-21T10:46:54;3.83;;;1.07;;
773;SDS011;370;48.810;9.150;2022-11-21T10:49:23;3.83;;;0.73;;
773;SDS011;370;48.810;9.150;2022-11-21T10:51:52;7.67;;;1.10;;
773;SDS011;370;48.810;9.150;2022-11-21T10:54:25;2.17;;;0.97;;
773;SDS011;370;48.810;9.150;2022-11-21T10:56:59;1.10;;;0.80;;
773;SDS011;370;48.810;9.150;2022-11-21T10:59:31;1.73;;;0.90;;
773;SDS011;370;48.810;9.150;2022-11-21T11:01:59;2.53;;;1.00;;
773;SDS011;370;48.810;9.150;2022-11-21T11:04:29;2.37;;;1.00;;
773;SDS011;370;48.810;9.150;2022-11-21T11:06:56;2.10;;;0.80;;
773;SDS011;370;48.810;9.150;2022-11-21T11:09:39;1.67;;;1.00;;
773;SDS011;370;48.810;9.150;2022-11-21T11:12:15;2.80;;;1.00;;
773;SDS011;370;48.810;9.150;2022-11-21T11:15:17;0.80;;;0.67;;
773;SDS011;370;48.810;9.150;2022-11-21T11:17:48;1.00;;;0.80;;
773;SDS011;370;48.810;9.150;2022-11-21T11:20:29;3.43;;;0.93;;
773;SDS011;370;48.810;9.150;2022-11-21T11:22:59;2.40;;;0.80;;
773;SDS011;370;48.810;9.150;2022-11-21T11:25:26;0.90;;;0.70;;
773;SDS011;370;48.810;9.150;2022-11-21T11:27:53;2.80;;;0.93;;
773;SDS011;370;48.810;9.150;2022-11-21T11:30:21;4.37;;;1.10;;
773;SDS011;370;48.810;9.150;2022-11-21T11:32:47;1.43;;;1.07;;
773;SDS011;370;48.810;9.150;2022-11-21T11:35:19;5.13;;;0.90;;
773;SDS011;370;48.810;9.150;2022-11-21T11:37:51;1.07;;;0.70;;
773;SDS011;370;48.810;9.150;2022-11-21T11:40:27;4.80;;;0.77;;
773;SDS011;370;48.810;9.150;2022-11-21T11:43:04;2.53;;;1.10;;
773;SDS011;370;48.810;9.150;2022-11-21T11:49:20;6.63;;;1.00;;
773;SDS011;370;48.810;9.150;2022-11-21T11:51:55;3.03;;;1.10;;
773;SDS011;370;48.810;9.150;2022-11-21T11:54:29;3.67;;;0.77;;
773;SDS011;370;48.810;9.150;2022-11-21T11:57:00;4.53;;;0.77;;
773;SDS011;370;48.810;9.150;2022-11-21T11:59:30;4.10;;;0.97;;
773;SDS011;370;48.810;9.150;2022-11-21T12:02:00;1.00;;;0.77;;
773;SDS011;370;48.810;9.150;2022-11-21T12:04:32;2.10;;;0.70;;
773;SDS011;370;48.810;9.150;2022-11-21T12:07:11;3.13;;;0.80;;
773;SDS011;370;48.810;9.150;2022-11-21T12:09:46;2.93;;;0.80;;
773;SDS011;370;48.810;9.150;2022-11-21T12:12:22;1.10;;;0.77;;
773;SDS011;370;48.810;9.150;2022-11-21T12:14:59;1.43;;;0.97;;
773;SDS011;370;48.810;9.150;2022-11-21T12:17:49;2.33;;;0.80;;
773;SDS011;370;48.810;9.150;2022-11-21T12:20:22;4.55;;;1.33;;
773;SDS011;370;48.810;9.150;2022-11-21T12:22:52;1.70;;;0.95;;
773;SDS011;370;48.810;9.150;2022-11-21T12:25:22;0.60;;;0.50;;
773;SDS011;370;48.810;9.150;2022-11-21T12:27:54;0.65;;;0.55;;
773;SDS011;370;48.810;9.150;2022-11-21T12:30:37;6.38;;;1.33;;
773;SDS011;370;48.810;9.150;2022-11-21T12:33:14;0.95;;;0.82;;
773;SDS011;370;48.810;9.150;2022-11-21T12:35:49;0.82;;;0.60;;
773;SDS011;370;48.810;9.150;2022-11-21T12:38:46;4.03;;;1.00;;
773;SDS011;370;48.810;9.150;2022-11-21T12:41:22;5.32;;;0.70;;
773;SDS011;370;48.810;9.150;2022-11-21T12:44:17;9.65;;;0.90;;
773;SDS011;370;48.810;9.150;2022-11-21T12:46:56;1.15;;;0.60;;
773;SDS011;370;48.810;9.150;2022-11-21T12:49:34;8.57;;;0.93;;
773;SDS011;370;48.810;9.150;2022-11-21T12:52:29;1.58;;;0.70;;
773;SDS011;370;48.810;9.150;2022-11-21T12:55:17;1.15;;;0.55;;
773;SDS011;370;48.810;9.150;2022-11-21T12:57:56;2.95;;;0.77;;
773;SDS011;370;48.810;9.150;2022-11-21T13:00:37;0.55;;;0.50;;
773;SDS011;370;48.810;9.150;2022-11-21T13:06:11;0.68;;;0.60;;
773;SDS011;370;48.810;9.150;2022-11-21T13:08:41;1.02;;;0.60;;
773;SDS011;370;48.810;9.150;2022-11-21T13:11:15;1.45;;;0.98;;
773;SDS011;370;48.810;9.150;2022-11-21T13:14:11;6.88;;;0.75;;
773;SDS011;370;48.810;9.150;2022-11-21T13:16:44;0.70;;;0.70;;
773;SDS011;370;48.810;9.150;2022-11-21T13:19:18;0.55;;;0.47;;
773;SDS011;370;48.810;9.150;2022-11-21T13:21:49;10.73;;;1.20;;
773;SDS011;370;48.810;9.150;2022-11-21T13:27:25;0.80;;;0.70;;
773;SDS011;370;48.810;9.150;2022-11-21T13:32:46;2.05;;;0.63;;
773;SDS011;370;48.810;9.150;2022-11-21T13:38:30;1.27;;;0.67;;
773;SDS011;370;48.810;9.150;2022-11-21T13:44:38;2.10;;;0.87;;
773;SDS011;370;48.810;9.150;2022-11-21T13:47:09;1.40;;;0.80;;
773;SDS011;370;48.810;9.150;2022-11-21T13:49:54;2.40;;;0.80;;
773;SDS011;370;48.810;9.150;2022-11-21T13:52:30;0.80;;;0.70;;
773;SDS011;370;48.810;9.150;2022-11-21T13:55:07;2.40;;;0.70;;
773;SDS011;370;48.810;9.150;2022-11-21T13:57:53;0.80;;;0.65;;
773;SDS011;370;48.810;9.150;2022-11-21T14:00:29;1.67;;;0.67;;
773;SDS011;370;48.810;9.150;2022-11-21T14:03:11;5.03;;;0.80;;
773;SDS011;370;48.810;9.150;2022-11-21T14:06:08;4.20;;;0.80;;
773;SDS011;370;48.810;9.150;2022-11-21T14:11:51;1.42;;;1.17;;
773;SDS011;370;48.810;9.150;2022-11-21T14:14:28;1.33;;;0.65;;
773;SDS011;370;48.810;9.150;2022-11-21T14:17:15;3.53;;;0.90;;
773;SDS011;370;48.810;9.150;2022-11-21T14:19:54;3.80;;;1.02;;
773;SDS011;370;48.810;9.150;2022-11-21T14:22:24;1.70;;;1.00;;
773;SDS011;370;48.810;9.150;2022-11-21T14:24:52;5.28;;;0.80;;
773;SDS011;370;48.810;9.150;2022-11-21T14:27:22;5.00;;;0.80;;
773;SDS011;370;48.810;9.150;2022-11-21T14:29:52;4.80;;;0.57;;
773;SDS011;370;48.810;9.150;2022-11-21T14:32:24;5.57;;;1.15;;
773;SDS011;370;48.810;9.150;2022-11-21T14:34:53;15.20;;;1.20;;
773;SDS011;370;48.810;9.150;2022-11-21T14:37:33;0.93;;;0.70;;
773;SDS011;370;48.810;9.150;2022-11-21T14:40:02;3.35;;;1.02;;
773;SDS011;370;48.810;9.150;2022-11-21T14:42:33;2.30;;;1.15;;
773;SDS011;370;48.810;9.150;2022-11-21T14:45:12;0.63;;;0.57;;
773;SDS011;370;48.810;9.150;2022-11-21T14:47:47;2.13;;;0.88;;
773;SDS011;370;48.810;9.150;2022-11-21T14:50:25;2.20;;;0.70;;
773;SDS011;370;48.810;9.150;2022-11-21T14:52:53;0.65;;;0.60;;
773;SDS011;370;48.810;9.150;2022-11-21T14:55:24;2.88;;;0.93;;
773;SDS011;370;48.810;9.150;2022-11-21T14:57:53;3.70;;;0.90;;
773;SDS011;370;48.810;9.150;2022-11-21T15:00:22;1.10;;;0.90;;
773;SDS011;370;48.810;9.150;2022-11-21T15:02:52;1.13;;;0.88;;
773;SDS011;370;48.810;9.150;2022-11-21T15:05:20;1.13;;;0.70;;
773;SDS011;370;48.810;9.150;2022-11-21T15:07:49;2.35;;;1.60;;
773;SDS011;370;48.810;9.150;2022-11-21T15:10:16;5.82;;;1.63;;
773;SDS011;370;48.810;9.150;2022-11-21T15:12:46;3.00;;;0.88;;
773;SDS011;370;48.810;9.150;2022-11-21T15:15:22;1.13;;;0.80;;
773;SDS011;370;48.810;9.150;2022-11-21T15:17:53;4.15;;;1.10;;
773;SDS011;370;48.810;9.150;2022-11-21T15:20:22;0.70;;;0.70;;
773;SDS011;370;48.810;9.150;2022-11-21T15:22:54;0.60;;;0.60;;
773;SDS011;370;48.810;9.150;2022-11-21T15:25:23;2.78;;;1.08;;
773;SDS011;370;48.810;9.150;2022-11-21T15:27:51;3.95;;;1.10;;
773;SDS011;370;48.810;9.150;2022-11-21T15:30:31;5.07;;;1.30;;
773;SDS011;370;48.810;9.150;2022-11-21T15:32:59;1.25;;;0.68;;
773;SDS011;370;48.810;9.150;2022-11-21T15:35:34;17.75;;;0.80;;
773;SDS011;370;48.810;9.150;2022-11-21T15:38:14;0.90;;;0.60;;
773;SDS011;370;48.810;9.150;2022-11-21T15:43:31;0.90;;;0.68;;
773;SDS011;370;48.810;9.150;2022-11-21T15:46:00;1.30;;;0.80;;
773;SDS011;370;48.810;9.150;2022-11-21T15:48:27;1.67;;;0.60;;
773;SDS011;370;48.810;9.150;2022-11-21T15:50:54;0.63;;;0.50;;
773;SDS011;370;48.810;9.150;2022-11-21T15:53:23;0.80;;;0.60;;
773;SDS011;370;48.810;9.150;2022-11-21T15:55:49;0.60;;;0.60;;
773;SDS011;370;48.810;9.150;2022-11-21T15:58:16;8.13;;;1.52;;
773;SDS011;370;48.810;9.150;2022-11-21T16:00:43;1.05;;;0.85;;
773;SDS011;370;48.810;9.150;2022-11-21T16:03:10;9.38;;;1.55;;
773;SDS011;370;48.810;9.150;2022-11-21T16:05:37;1.30;;;1.20;;
773;SDS011;370;48.810;9.150;2022-11-21T16:08:03;2.10;;;0.75;;
773;SDS011;370;48.810;9.150;2022-11-21T16:10:32;5.07;;;1.70;;
773;SDS011;370;48.810;9.150;2022-11-21T16:13:01;6.88;;;1.55;;
773;SDS011;370;48.810;9.150;2022-11-21T16:15:28;0.70;;;0.60;;
773;SDS011;370;48.810;9.150;2022-11-21T16:17:54;3.08;;;1.10;;
773;SDS011;370;48.810;9.150;2022-11-21T16:20:21;1.85;;;1.00;;
773;SDS011;370;48.810;9.150;2022-11-21T16:22:48;4.00;;;1.50;;
773;SDS011;370;48.810;9.150;2022-11-21T16:25:14;5.53;;;1.52;;
773;SDS011;370;48.810;9.150;2022-11-21T16:27:43;0.75;;;0.70;;
773;SDS011;370;48.810;9.150;2022-11-21T16:30:10;1.98;;;0.80;;
773;SDS011;370;48.810;9.150;2022-11-21T16:32:37;1.20;;;0.70;;